Archival Weather

Chicago O'Hare International

Chicago, Illinois (KORD)

Report from: Thursday, November 24, 2022 3:51 AM CST
Current time: Sunday, December 4, 2022 5:23 AM CST

Current weather
Weather history
Weather forecast

Temperature3.3°C (37.9°F)
Wind chill1.9°C (35.5°F)
Dew point-1.1°C (30.0°F)
Winds 3 kts (1.5 m/s, 3.5 mph) South-Southeast (160°)
Visibility10 mi. (16.1 km)
Clouds Scattered clouds 25,000 ft. (7,620 m)
Altimeter30.14 in.Hg (1021 mB)
Relative humidity73 %
Density altitude-1,585 ft. (-483 m)
Sea-level pressure102.1 kPa (1021 mB, 30.14 in.Hg)
Remarks System requires maintenance
Automated weather observing station with precipitation discriminator
Flight conditions Visual Meteorological Conditions
Raw dataKORD 240951Z 16003KT 10SM SCT250 03/M01 A3014 RMK AO2 SLP208 T00331011 $
An error has occurred. This application may no longer respond until reloaded. Reload 🗙